sensor_id;sensor_type;location;lat;lon;timestamp;temperature;humidity
47600;DHT22;33323;52.124;6.018;2022-08-19T00:02:03;17.30;99.90
47600;DHT22;33323;52.124;6.018;2022-08-19T00:04:32;17.20;99.90
47600;DHT22;33323;52.124;6.018;2022-08-19T00:07:06;17.30;99.90
47600;DHT22;33323;52.124;6.018;2022-08-19T00:09:34;17.20;99.90
47600;DHT22;33323;52.124;6.018;2022-08-19T00:12:01;17.20;99.90
47600;DHT22;33323;52.124;6.018;2022-08-19T00:14:29;17.30;99.90
47600;DHT22;33323;52.124;6.018;2022-08-19T00:16:58;17.20;99.90
47600;DHT22;33323;52.124;6.018;2022-08-19T00:19:25;17.30;99.90
47600;DHT22;33323;52.124;6.018;2022-08-19T00:21:52;17.30;99.90
47600;DHT22;33323;52.124;6.018;2022-08-19T00:24:19;17.30;99.90
47600;DHT22;33323;52.124;6.018;2022-08-19T00:26:46;17.40;99.90
47600;DHT22;33323;52.124;6.018;2022-08-19T00:29:16;17.40;99.90
47600;DHT22;33323;52.124;6.018;2022-08-19T00:31:44;17.20;99.90
47600;DHT22;33323;52.124;6.018;2022-08-19T00:34:12;17.00;99.90
47600;DHT22;33323;52.124;6.018;2022-08-19T00:36:41;17.00;99.90
47600;DHT22;33323;52.124;6.018;2022-08-19T00:39:09;17.00;99.90
47600;DHT22;33323;52.124;6.018;2022-08-19T00:41:37;17.00;99.90
47600;DHT22;33323;52.124;6.018;2022-08-19T00:44:09;17.00;99.90
47600;DHT22;33323;52.124;6.018;2022-08-19T00:46:43;17.00;99.90
47600;DHT22;33323;52.124;6.018;2022-08-19T00:52:32;16.80;99.90
47600;DHT22;33323;52.124;6.018;2022-08-19T00:55:02;16.70;99.90
47600;DHT22;33323;52.124;6.018;2022-08-19T00:57:38;16.60;99.90
47600;DHT22;33323;52.124;6.018;2022-08-19T01:00:13;16.60;99.90
47600;DHT22;33323;52.124;6.018;2022-08-19T01:02:42;16.50;99.90
47600;DHT22;33323;52.124;6.018;2022-08-19T01:05:13;16.50;99.90
47600;DHT22;33323;52.124;6.018;2022-08-19T01:07:41;16.60;99.90
47600;DHT22;33323;52.124;6.018;2022-08-19T01:10:13;16.60;99.90
47600;DHT22;33323;52.124;6.018;2022-08-19T01:12:42;16.80;99.90
47600;DHT22;33323;52.124;6.018;2022-08-19T01:15:12;16.80;99.90
47600;DHT22;33323;52.124;6.018;2022-08-19T01:17:41;16.60;99.90
47600;DHT22;33323;52.124;6.018;2022-08-19T01:20:12;16.50;99.90
47600;DHT22;33323;52.124;6.018;2022-08-19T01:22:51;16.60;99.90
47600;DHT22;33323;52.124;6.018;2022-08-19T01:25:22;16.50;99.90
47600;DHT22;33323;52.124;6.018;2022-08-19T01:27:54;16.60;99.90
47600;DHT22;33323;52.124;6.018;2022-08-19T01:30:32;16.50;99.90
47600;DHT22;33323;52.124;6.018;2022-08-19T01:33:01;16.50;99.90
47600;DHT22;33323;52.124;6.018;2022-08-19T01:35:30;16.50;99.90
47600;DHT22;33323;52.124;6.018;2022-08-19T01:38:07;16.40;99.90
47600;DHT22;33323;52.124;6.018;2022-08-19T01:40:39;16.40;99.90
47600;DHT22;33323;52.124;6.018;2022-08-19T01:43:06;16.40;99.90
47600;DHT22;33323;52.124;6.018;2022-08-19T01:45:34;16.30;99.90
47600;DHT22;33323;52.124;6.018;2022-08-19T01:48:02;16.40;99.90
47600;DHT22;33323;52.124;6.018;2022-08-19T01:50:31;16.40;99.90
47600;DHT22;33323;52.124;6.018;2022-08-19T01:53:00;16.40;99.90
47600;DHT22;33323;52.124;6.018;2022-08-19T01:55:36;16.40;99.90
47600;DHT22;33323;52.124;6.018;2022-08-19T01:58:10;16.50;99.90
47600;DHT22;33323;52.124;6.018;2022-08-19T02:00:42;16.50;99.90
47600;DHT22;33323;52.124;6.018;2022-08-19T02:03:10;16.30;99.90
47600;DHT22;33323;52.124;6.018;2022-08-19T02:05:38;16.40;99.90
47600;DHT22;33323;52.124;6.018;2022-08-19T02:08:06;16.50;99.90
47600;DHT22;33323;52.124;6.018;2022-08-19T02:10:37;16.50;99.90
47600;DHT22;33323;52.124;6.018;2022-08-19T02:13:06;16.50;99.90
47600;DHT22;33323;52.124;6.018;2022-08-19T02:15:33;16.50;99.90
47600;DHT22;33323;52.124;6.018;2022-08-19T02:18:00;16.50;99.90
47600;DHT22;33323;52.124;6.018;2022-08-19T02:20:27;16.40;99.90
47600;DHT22;33323;52.124;6.018;2022-08-19T02:22:54;16.40;99.90
47600;DHT22;33323;52.124;6.018;2022-08-19T02:25:21;16.20;99.90
47600;DHT22;33323;52.124;6.018;2022-08-19T02:27:48;16.10;99.90
47600;DHT22;33323;52.124;6.018;2022-08-19T02:30:16;16.10;99.90
47600;DHT22;33323;52.124;6.018;2022-08-19T02:32:44;16.10;99.90
47600;DHT22;33323;52.124;6.018;2022-08-19T02:35:12;16.10;99.90
47600;DHT22;33323;52.124;6.018;2022-08-19T02:37:41;16.20;99.90
47600;DHT22;33323;52.124;6.018;2022-08-19T02:40:28;16.20;99.90
47600;DHT22;33323;52.124;6.018;2022-08-19T02:42:56;15.90;99.90
47600;DHT22;33323;52.124;6.018;2022-08-19T02:45:23;15.80;99.90
47600;DHT22;33323;52.124;6.018;2022-08-19T02:47:50;16.00;99.90
47600;DHT22;33323;52.124;6.018;2022-08-19T02:50:17;16.00;99.90
47600;DHT22;33323;52.124;6.018;2022-08-19T02:52:45;15.90;99.90
47600;DHT22;33323;52.124;6.018;2022-08-19T02:55:12;15.80;99.90
47600;DHT22;33323;52.124;6.018;2022-08-19T02:57:38;15.90;99.90
47600;DHT22;33323;52.124;6.018;2022-08-19T03:00:07;15.80;99.90
47600;DHT22;33323;52.124;6.018;2022-08-19T03:02:38;15.80;99.90
47600;DHT22;33323;52.124;6.018;2022-08-19T03:05:08;15.70;99.90
47600;DHT22;33323;52.124;6.018;2022-08-19T03:07:36;15.70;99.90
47600;DHT22;33323;52.124;6.018;2022-08-19T03:10:04;15.70;99.90
47600;DHT22;33323;52.124;6.018;2022-08-19T03:12:36;15.70;99.90
47600;DHT22;33323;52.124;6.018;2022-08-19T03:15:07;15.80;99.90
47600;DHT22;33323;52.124;6.018;2022-08-19T03:17:35;15.70;99.90
47600;DHT22;33323;52.124;6.018;2022-08-19T03:20:03;15.80;99.90
47600;DHT22;33323;52.124;6.018;2022-08-19T03:22:31;15.80;99.90
47600;DHT22;33323;52.124;6.018;2022-08-19T03:24:58;15.80;99.90
47600;DHT22;33323;52.124;6.018;2022-08-19T03:27:26;15.80;99.90
47600;DHT22;33323;52.124;6.018;2022-08-19T03:30:00;15.70;99.90
47600;DHT22;33323;52.124;6.018;2022-08-19T03:32:27;15.60;99.90
47600;DHT22;33323;52.124;6.018;2022-08-19T03:34:58;15.70;99.90
47600;DHT22;33323;52.124;6.018;2022-08-19T03:37:26;15.50;99.90
47600;DHT22;33323;52.124;6.018;2022-08-19T03:39:53;15.50;99.90
47600;DHT22;33323;52.124;6.018;2022-08-19T03:42:20;15.60;99.90
47600;DHT22;33323;52.124;6.018;2022-08-19T03:45:07;15.70;99.90
47600;DHT22;33323;52.124;6.018;2022-08-19T03:47:34;15.70;99.90
47600;DHT22;33323;52.124;6.018;2022-08-19T03:50:01;15.60;99.90
47600;DHT22;33323;52.124;6.018;2022-08-19T03:52:29;15.40;99.90
47600;DHT22;33323;52.124;6.018;2022-08-19T03:54:55;15.40;99.90
47600;DHT22;33323;52.124;6.018;2022-08-19T03:57:22;15.30;99.90
47600;DHT22;33323;52.124;6.018;2022-08-19T03:59:58;15.40;99.90
47600;DHT22;33323;52.124;6.018;2022-08-19T04:02:39;15.50;99.90
47600;DHT22;33323;52.124;6.018;2022-08-19T04:05:07;15.40;99.90
47600;DHT22;33323;52.124;6.018;2022-08-19T04:07:34;15.30;99.90
47600;DHT22;33323;52.124;6.018;2022-08-19T04:10:03;15.30;99.90
47600;DHT22;33323;52.124;6.018;2022-08-19T04:12:31;15.40;99.90
47600;DHT22;33323;52.124;6.018;2022-08-19T04:14:58;15.40;99.90
47600;DHT22;33323;52.124;6.018;2022-08-19T04:17:25;15.50;99.90
47600;DHT22;33323;52.124;6.018;2022-08-19T04:19:52;15.50;99.90
47600;DHT22;33323;52.124;6.018;2022-08-19T04:22:19;15.50;99.90
47600;DHT22;33323;52.124;6.018;2022-08-19T04:24:46;15.50;99.90
47600;DHT22;33323;52.124;6.018;2022-08-19T04:27:13;15.40;99.90
47600;DHT22;33323;52.124;6.018;2022-08-19T04:29:40;15.30;99.90
47600;DHT22;33323;52.124;6.018;2022-08-19T04:32:10;15.40;99.90
47600;DHT22;33323;52.124;6.018;2022-08-19T04:34:37;15.40;99.90
47600;DHT22;33323;52.124;6.018;2022-08-19T04:37:25;15.30;99.90
47600;DHT22;33323;52.124;6.018;2022-08-19T04:40:00;15.30;99.90
47600;DHT22;33323;52.124;6.018;2022-08-19T04:42:46;15.30;99.90
47600;DHT22;33323;52.124;6.018;2022-08-19T04:45:14;15.30;99.90
47600;DHT22;33323;52.124;6.018;2022-08-19T04:47:43;15.30;99.90
47600;DHT22;33323;52.124;6.018;2022-08-19T04:50:25;15.30;99.90
47600;DHT22;33323;52.124;6.018;2022-08-19T04:52:53;15.30;99.90
47600;DHT22;33323;52.124;6.018;2022-08-19T04:55:22;15.30;99.90
47600;DHT22;33323;52.124;6.018;2022-08-19T04:57:52;15.30;99.90
47600;DHT22;33323;52.124;6.018;2022-08-19T05:00:19;15.20;99.90
47600;DHT22;33323;52.124;6.018;2022-08-19T05:02:47;15.20;99.90
47600;DHT22;33323;52.124;6.018;2022-08-19T05:05:16;15.20;99.90
47600;DHT22;33323;52.124;6.018;2022-08-19T05:07:44;15.20;99.90
47600;DHT22;33323;52.124;6.018;2022-08-19T05:10:11;15.10;99.90
47600;DHT22;33323;52.124;6.018;2022-08-19T05:12:39;15.10;99.90
47600;DHT22;33323;52.124;6.018;2022-08-19T05:15:06;15.20;99.90
47600;DHT22;33323;52.124;6.018;2022-08-19T05:17:35;15.20;99.90
47600;DHT22;33323;52.124;6.018;2022-08-19T05:20:07;15.20;99.90
47600;DHT22;33323;52.124;6.018;2022-08-19T05:22:53;15.30;99.90
47600;DHT22;33323;52.124;6.018;2022-08-19T05:25:21;15.30;99.90
47600;DHT22;33323;52.124;6.018;2022-08-19T05:27:49;15.20;99.90
47600;DHT22;33323;52.124;6.018;2022-08-19T05:30:17;15.30;99.90
47600;DHT22;33323;52.124;6.018;2022-08-19T05:32:59;15.40;99.90
47600;DHT22;33323;52.124;6.018;2022-08-19T05:35:26;15.60;99.90
47600;DHT22;33323;52.124;6.018;2022-08-19T05:38:00;15.60;99.90
47600;DHT22;33323;52.124;6.018;2022-08-19T05:40:27;15.70;99.90
47600;DHT22;33323;52.124;6.018;2022-08-19T05:42:55;15.60;99.90
47600;DHT22;33323;52.124;6.018;2022-08-19T05:45:22;15.60;99.90
47600;DHT22;33323;52.124;6.018;2022-08-19T05:47:49;15.60;99.90
47600;DHT22;33323;52.124;6.018;2022-08-19T05:50:16;15.70;99.90
47600;DHT22;33323;52.124;6.018;2022-08-19T05:52:44;15.60;99.90
47600;DHT22;33323;52.124;6.018;2022-08-19T05:55:19;15.70;99.90
47600;DHT22;33323;52.124;6.018;2022-08-19T05:57:47;15.90;99.90
47600;DHT22;33323;52.124;6.018;2022-08-19T06:00:15;16.00;99.90
47600;DHT22;33323;52.124;6.018;2022-08-19T06:02:45;16.10;99.90
47600;DHT22;33323;52.124;6.018;2022-08-19T06:05:13;16.30;99.90
47600;DHT22;33323;52.124;6.018;2022-08-19T06:07:40;16.40;99.90
47600;DHT22;33323;52.124;6.018;2022-08-19T06:10:09;16.50;99.90
47600;DHT22;33323;52.124;6.018;2022-08-19T06:12:38;16.40;99.90
47600;DHT22;33323;52.124;6.018;2022-08-19T06:15:08;16.50;99.90
47600;DHT22;33323;52.124;6.018;2022-08-19T06:17:38;16.60;99.90
47600;DHT22;33323;52.124;6.018;2022-08-19T06:20:09;16.80;99.90
47600;DHT22;33323;52.124;6.018;2022-08-19T06:22:41;16.90;99.90
47600;DHT22;33323;52.124;6.018;2022-08-19T06:25:12;17.00;99.90
47600;DHT22;33323;52.124;6.018;2022-08-19T06:27:41;17.10;99.90
47600;DHT22;33323;52.124;6.018;2022-08-19T06:30:28;17.20;99.90
47600;DHT22;33323;52.124;6.018;2022-08-19T06:32:55;17.30;99.90
47600;DHT22;33323;52.124;6.018;2022-08-19T06:35:22;17.50;99.90
47600;DHT22;33323;52.124;6.018;2022-08-19T06:37:49;17.80;99.90
47600;DHT22;33323;52.124;6.018;2022-08-19T06:40:17;18.00;99.90
47600;DHT22;33323;52.124;6.018;2022-08-19T06:42:44;18.10;99.90
47600;DHT22;33323;52.124;6.018;2022-08-19T06:45:21;18.20;99.90
47600;DHT22;33323;52.124;6.018;2022-08-19T06:47:51;18.40;99.90
47600;DHT22;33323;52.124;6.018;2022-08-19T06:50:21;18.40;99.90
47600;DHT22;33323;52.124;6.018;2022-08-19T06:52:51;18.50;99.90
47600;DHT22;33323;52.124;6.018;2022-08-19T06:55:18;18.50;99.90
47600;DHT22;33323;52.124;6.018;2022-08-19T06:57:46;18.60;99.90
47600;DHT22;33323;52.124;6.018;2022-08-19T07:00:14;18.70;99.90
47600;DHT22;33323;52.124;6.018;2022-08-19T07:02:42;18.80;99.90
47600;DHT22;33323;52.124;6.018;2022-08-19T07:05:21;18.90;99.90
47600;DHT22;33323;52.124;6.018;2022-08-19T07:07:48;18.90;99.90
47600;DHT22;33323;52.124;6.018;2022-08-19T07:10:16;19.10;99.90
47600;DHT22;33323;52.124;6.018;2022-08-19T07:12:44;19.20;99.90
47600;DHT22;33323;52.124;6.018;2022-08-19T07:15:11;19.30;99.90
47600;DHT22;33323;52.124;6.018;2022-08-19T07:17:38;19.30;99.90
47600;DHT22;33323;52.124;6.018;2022-08-19T07:20:08;19.40;99.90
47600;DHT22;33323;52.124;6.018;2022-08-19T07:22:37;19.50;99.90
47600;DHT22;33323;52.124;6.018;2022-08-19T07:25:07;19.50;99.90
47600;DHT22;33323;52.124;6.018;2022-08-19T07:27:35;19.60;99.90
47600;DHT22;33323;52.124;6.018;2022-08-19T07:30:07;19.70;99.90
47600;DHT22;33323;52.124;6.018;2022-08-19T07:32:38;19.90;99.90
47600;DHT22;33323;52.124;6.018;2022-08-19T07:35:06;20.10;99.90
47600;DHT22;33323;52.124;6.018;2022-08-19T07:37:35;20.30;99.90
47600;DHT22;33323;52.124;6.018;2022-08-19T07:40:05;20.80;99.90
47600;DHT22;33323;52.124;6.018;2022-08-19T07:42:33;21.30;99.90
47600;DHT22;33323;52.124;6.018;2022-08-19T07:45:00;21.80;99.90
47600;DHT22;33323;52.124;6.018;2022-08-19T07:47:27;22.10;99.70
47600;DHT22;33323;52.124;6.018;2022-08-19T07:50:15;22.10;99.30
47600;DHT22;33323;52.124;6.018;2022-08-19T07:52:44;22.20;99.50
47600;DHT22;33323;52.124;6.018;2022-08-19T07:55:17;22.40;98.90
47600;DHT22;33323;52.124;6.018;2022-08-19T07:58:09;22.70;98.90
47600;DHT22;33323;52.124;6.018;2022-08-19T08:00:37;23.10;97.10
47600;DHT22;33323;52.124;6.018;2022-08-19T08:03:04;23.00;97.00
47600;DHT22;33323;52.124;6.018;2022-08-19T08:05:32;23.10;97.60
47600;DHT22;33323;52.124;6.018;2022-08-19T08:08:17;23.20;95.70
47600;DHT22;33323;52.124;6.018;2022-08-19T08:11:16;23.20;96.40
47600;DHT22;33323;52.124;6.018;2022-08-19T08:13:47;23.10;96.60
47600;DHT22;33323;52.124;6.018;2022-08-19T08:16:33;23.20;95.20
47600;DHT22;33323;52.124;6.018;2022-08-19T08:19:05;23.30;95.60
47600;DHT22;33323;52.124;6.018;2022-08-19T08:21:52;23.30;95.00
47600;DHT22;33323;52.124;6.018;2022-08-19T08:24:20;23.60;93.70
47600;DHT22;33323;52.124;6.018;2022-08-19T08:26:53;23.30;92.70
47600;DHT22;33323;52.124;6.018;2022-08-19T08:29:23;23.20;92.90
47600;DHT22;33323;52.124;6.018;2022-08-19T08:31:52;23.20;94.40
47600;DHT22;33323;52.124;6.018;2022-08-19T08:34:25;23.50;93.10
47600;DHT22;33323;52.124;6.018;2022-08-19T08:36:52;23.70;92.10
47600;DHT22;33323;52.124;6.018;2022-08-19T08:39:20;23.70;91.60
47600;DHT22;33323;52.124;6.018;2022-08-19T08:45:05;23.90;89.50
47600;DHT22;33323;52.124;6.018;2022-08-19T08:47:47;23.90;90.50
47600;DHT22;33323;52.124;6.018;2022-08-19T08:50:21;23.70;91.40
47600;DHT22;33323;52.124;6.018;2022-08-19T08:53:09;23.80;91.70
47600;DHT22;33323;52.124;6.018;2022-08-19T08:55:37;24.00;89.80
47600;DHT22;33323;52.124;6.018;2022-08-19T08:58:26;23.80;90.80
47600;DHT22;33323;52.124;6.018;2022-08-19T09:00:57;23.70;88.20
47600;DHT22;33323;52.124;6.018;2022-08-19T09:03:27;23.90;89.00
47600;DHT22;33323;52.124;6.018;2022-08-19T09:06:14;24.00;85.80
47600;DHT22;33323;52.124;6.018;2022-08-19T09:09:15;24.50;83.10
47600;DHT22;33323;52.124;6.018;2022-08-19T09:14:54;24.80;76.30
47600;DHT22;33323;52.124;6.018;2022-08-19T09:17:26;24.60;76.70
47600;DHT22;33323;52.124;6.018;2022-08-19T09:22:41;24.80;77.30
47600;DHT22;33323;52.124;6.018;2022-08-19T09:25:14;25.00;75.30
47600;DHT22;33323;52.124;6.018;2022-08-19T09:27:51;25.20;74.50
47600;DHT22;33323;52.124;6.018;2022-08-19T09:30:26;25.20;72.20
47600;DHT22;33323;52.124;6.018;2022-08-19T09:32:57;25.00;73.90
47600;DHT22;33323;52.124;6.018;2022-08-19T09:35:26;24.80;73.00
47600;DHT22;33323;52.124;6.018;2022-08-19T09:37:56;24.70;75.50
47600;DHT22;33323;52.124;6.018;2022-08-19T09:40:27;24.90;68.20
47600;DHT22;33323;52.124;6.018;2022-08-19T09:42:57;24.90;66.10
47600;DHT22;33323;52.124;6.018;2022-08-19T09:45:35;25.00;63.60
47600;DHT22;33323;52.124;6.018;2022-08-19T09:48:02;24.90;64.70
47600;DHT22;33323;52.124;6.018;2022-08-19T09:50:29;25.30;64.60
47600;DHT22;33323;52.124;6.018;2022-08-19T09:53:02;25.50;62.60
47600;DHT22;33323;52.124;6.018;2022-08-19T09:55:32;25.60;61.70
47600;DHT22;33323;52.124;6.018;2022-08-19T09:58:00;25.50;63.50
47600;DHT22;33323;52.124;6.018;2022-08-19T10:00:27;25.80;65.80
47600;DHT22;33323;52.124;6.018;2022-08-19T10:02:55;26.00;62.40
47600;DHT22;33323;52.124;6.018;2022-08-19T10:05:22;26.20;61.00
47600;DHT22;33323;52.124;6.018;2022-08-19T10:08:09;26.10;62.10
47600;DHT22;33323;52.124;6.018;2022-08-19T10:10:42;25.90;63.30
47600;DHT22;33323;52.124;6.018;2022-08-19T10:13:14;26.00;62.00
47600;DHT22;33323;52.124;6.018;2022-08-19T10:15:42;26.10;64.80
47600;DHT22;33323;52.124;6.018;2022-08-19T10:18:13;26.30;61.60
47600;DHT22;33323;52.124;6.018;2022-08-19T10:20:46;26.30;64.90
47600;DHT22;33323;52.124;6.018;2022-08-19T10:23:20;25.60;68.00
47600;DHT22;33323;52.124;6.018;2022-08-19T10:25:48;25.10;70.00
47600;DHT22;33323;52.124;6.018;2022-08-19T10:28:16;24.90;70.40
47600;DHT22;33323;52.124;6.018;2022-08-19T10:30:45;25.20;70.90
47600;DHT22;33323;52.124;6.018;2022-08-19T10:33:14;25.80;71.90
47600;DHT22;33323;52.124;6.018;2022-08-19T10:36:04;26.10;67.50
47600;DHT22;33323;52.124;6.018;2022-08-19T10:38:37;26.10;70.70
47600;DHT22;33323;52.124;6.018;2022-08-19T10:41:16;26.20;68.90
47600;DHT22;33323;52.124;6.018;2022-08-19T10:43:45;26.30;67.00
47600;DHT22;33323;52.124;6.018;2022-08-19T10:46:14;26.20;67.50
47600;DHT22;33323;52.124;6.018;2022-08-19T10:48:43;26.30;64.50
47600;DHT22;33323;52.124;6.018;2022-08-19T10:51:11;25.90;66.90
47600;DHT22;33323;52.124;6.018;2022-08-19T10:53:58;26.00;66.30
47600;DHT22;33323;52.124;6.018;2022-08-19T10:56:26;26.00;62.10
47600;DHT22;33323;52.124;6.018;2022-08-19T10:59:13;26.20;64.60
47600;DHT22;33323;52.124;6.018;2022-08-19T11:01:42;25.80;63.60
47600;DHT22;33323;52.124;6.018;2022-08-19T11:04:11;25.80;62.70
47600;DHT22;33323;52.124;6.018;2022-08-19T11:06:41;25.70;61.60
47600;DHT22;33323;52.124;6.018;2022-08-19T11:09:09;25.80;63.30
47600;DHT22;33323;52.124;6.018;2022-08-19T11:11:38;26.10;61.40
47600;DHT22;33323;52.124;6.018;2022-08-19T11:14:12;26.30;62.10
47600;DHT22;33323;52.124;6.018;2022-08-19T11:16:42;26.40;60.00
47600;DHT22;33323;52.124;6.018;2022-08-19T11:19:10;26.30;61.20
47600;DHT22;33323;52.124;6.018;2022-08-19T11:21:41;26.60;62.50
47600;DHT22;33323;52.124;6.018;2022-08-19T11:24:15;26.70;59.90
47600;DHT22;33323;52.124;6.018;2022-08-19T11:26:44;26.60;60.80
47600;DHT22;33323;52.124;6.018;2022-08-19T11:29:12;27.00;62.00
47600;DHT22;33323;52.124;6.018;2022-08-19T11:31:45;27.20;59.50
47600;DHT22;33323;52.124;6.018;2022-08-19T11:34:16;26.70;58.80
47600;DHT22;33323;52.124;6.018;2022-08-19T11:36:49;26.60;58.80
47600;DHT22;33323;52.124;6.018;2022-08-19T11:39:19;26.40;63.20
47600;DHT22;33323;52.124;6.018;2022-08-19T11:41:47;26.40;64.20
47600;DHT22;33323;52.124;6.018;2022-08-19T11:44:14;26.70;62.40
47600;DHT22;33323;52.124;6.018;2022-08-19T11:46:43;27.20;59.10
47600;DHT22;33323;52.124;6.018;2022-08-19T11:49:16;27.20;60.90
47600;DHT22;33323;52.124;6.018;2022-08-19T11:51:46;27.00;58.10
47600;DHT22;33323;52.124;6.018;2022-08-19T11:54:14;27.00;58.10
47600;DHT22;33323;52.124;6.018;2022-08-19T11:56:43;27.30;55.10
47600;DHT22;33323;52.124;6.018;2022-08-19T11:59:10;27.20;57.60
47600;DHT22;33323;52.124;6.018;2022-08-19T12:01:41;27.00;61.70
47600;DHT22;33323;52.124;6.018;2022-08-19T12:04:10;26.90;61.70
47600;DHT22;33323;52.124;6.018;2022-08-19T12:06:39;26.90;62.30
47600;DHT22;33323;52.124;6.018;2022-08-19T12:09:08;27.10;58.30
47600;DHT22;33323;52.124;6.018;2022-08-19T12:11:38;27.20;57.40
47600;DHT22;33323;52.124;6.018;2022-08-19T12:14:05;26.90;57.90
47600;DHT22;33323;52.124;6.018;2022-08-19T12:16:32;27.20;57.90
47600;DHT22;33323;52.124;6.018;2022-08-19T12:19:04;27.50;58.00
47600;DHT22;33323;52.124;6.018;2022-08-19T12:21:33;27.20;57.60
47600;DHT22;33323;52.124;6.018;2022-08-19T12:24:03;27.10;57.70
47600;DHT22;33323;52.124;6.018;2022-08-19T12:26:33;27.50;56.70
47600;DHT22;33323;52.124;6.018;2022-08-19T12:29:18;27.40;54.90
47600;DHT22;33323;52.124;6.018;2022-08-19T12:31:49;27.30;58.50
47600;DHT22;33323;52.124;6.018;2022-08-19T12:34:17;27.50;55.00
47600;DHT22;33323;52.124;6.018;2022-08-19T12:36:46;27.00;59.30
47600;DHT22;33323;52.124;6.018;2022-08-19T12:39:16;27.00;57.20
47600;DHT22;33323;52.124;6.018;2022-08-19T12:41:42;26.70;57.50
47600;DHT22;33323;52.124;6.018;2022-08-19T12:44:22;27.00;59.90
47600;DHT22;33323;52.124;6.018;2022-08-19T12:46:58;27.10;62.90
47600;DHT22;33323;52.124;6.018;2022-08-19T12:49:28;27.10;57.30
47600;DHT22;33323;52.124;6.018;2022-08-19T12:52:15;27.30;59.60
47600;DHT22;33323;52.124;6.018;2022-08-19T12:54:48;27.30;55.90
47600;DHT22;33323;52.124;6.018;2022-08-19T12:57:21;27.30;54.50
47600;DHT22;33323;52.124;6.018;2022-08-19T12:59:58;27.10;53.80
47600;DHT22;33323;52.124;6.018;2022-08-19T13:02:32;26.80;54.00
47600;DHT22;33323;52.124;6.018;2022-08-19T13:05:06;26.90;57.10
47600;DHT22;33323;52.124;6.018;2022-08-19T13:07:35;27.40;54.40
47600;DHT22;33323;52.124;6.018;2022-08-19T13:10:05;27.40;53.50
47600;DHT22;33323;52.124;6.018;2022-08-19T13:12:34;27.00;55.90
47600;DHT22;33323;52.124;6.018;2022-08-19T13:15:01;26.90;54.30
47600;DHT22;33323;52.124;6.018;2022-08-19T13:17:28;27.10;59.10
47600;DHT22;33323;52.124;6.018;2022-08-19T13:19:55;27.50;57.00
47600;DHT22;33323;52.124;6.018;2022-08-19T13:22:22;27.60;56.90
47600;DHT22;33323;52.124;6.018;2022-08-19T13:24:50;27.70;55.60
47600;DHT22;33323;52.124;6.018;2022-08-19T13:27:17;27.80;53.40
47600;DHT22;33323;52.124;6.018;2022-08-19T13:29:44;28.00;57.00
47600;DHT22;33323;52.124;6.018;2022-08-19T13:32:30;28.10;54.70
47600;DHT22;33323;52.124;6.018;2022-08-19T13:35:16;28.10;56.40
47600;DHT22;33323;52.124;6.018;2022-08-19T13:37:44;27.90;55.30
47600;DHT22;33323;52.124;6.018;2022-08-19T13:40:18;28.00;60.00
47600;DHT22;33323;52.124;6.018;2022-08-19T13:42:48;27.90;55.70
47600;DHT22;33323;52.124;6.018;2022-08-19T13:45:18;27.50;55.00
47600;DHT22;33323;52.124;6.018;2022-08-19T13:47:48;27.30;55.90
47600;DHT22;33323;52.124;6.018;2022-08-19T13:50:21;27.10;56.70
47600;DHT22;33323;52.124;6.018;2022-08-19T13:52:52;27.30;54.80
47600;DHT22;33323;52.124;6.018;2022-08-19T13:55:21;27.30;56.30
47600;DHT22;33323;52.124;6.018;2022-08-19T13:57:55;27.40;56.00
47600;DHT22;33323;52.124;6.018;2022-08-19T14:00:25;27.60;56.20
47600;DHT22;33323;52.124;6.018;2022-08-19T14:02:54;28.00;56.10
47600;DHT22;33323;52.124;6.018;2022-08-19T14:05:24;28.00;57.00
47600;DHT22;33323;52.124;6.018;2022-08-19T14:07:53;27.70;57.80
47600;DHT22;33323;52.124;6.018;2022-08-19T14:10:21;27.40;58.30
47600;DHT22;33323;52.124;6.018;2022-08-19T14:12:53;27.30;59.30
47600;DHT22;33323;52.124;6.018;2022-08-19T14:15:25;27.40;58.60
47600;DHT22;33323;52.124;6.018;2022-08-19T14:17:53;27.20;58.30
47600;DHT22;33323;52.124;6.018;2022-08-19T14:20:21;26.80;58.80
47600;DHT22;33323;52.124;6.018;2022-08-19T14:22:52;26.50;60.70
47600;DHT22;33323;52.124;6.018;2022-08-19T14:25:25;26.30;62.80
47600;DHT22;33323;52.124;6.018;2022-08-19T14:27:53;26.20;63.50
47600;DHT22;33323;52.124;6.018;2022-08-19T14:30:24;26.00;65.70
47600;DHT22;33323;52.124;6.018;2022-08-19T14:32:58;26.00;70.50
47600;DHT22;33323;52.124;6.018;2022-08-19T14:35:30;25.70;73.60
47600;DHT22;33323;52.124;6.018;2022-08-19T14:38:03;25.40;78.30
47600;DHT22;33323;52.124;6.018;2022-08-19T14:40:31;24.90;82.40
47600;DHT22;33323;52.124;6.018;2022-08-19T14:43:02;24.50;88.10
47600;DHT22;33323;52.124;6.018;2022-08-19T14:45:34;24.20;90.40
47600;DHT22;33323;52.124;6.018;2022-08-19T14:48:04;23.80;95.10
47600;DHT22;33323;52.124;6.018;2022-08-19T14:50:32;23.50;96.70
47600;DHT22;33323;52.124;6.018;2022-08-19T14:53:05;23.30;97.90
47600;DHT22;33323;52.124;6.018;2022-08-19T14:55:41;23.30;99.70
47600;DHT22;33323;52.124;6.018;2022-08-19T14:58:09;23.10;99.90
47600;DHT22;33323;52.124;6.018;2022-08-19T15:00:57;22.80;99.40
47600;DHT22;33323;52.124;6.018;2022-08-19T15:03:25;22.90;99.90
47600;DHT22;33323;52.124;6.018;2022-08-19T15:05:53;22.70;99.90
47600;DHT22;33323;52.124;6.018;2022-08-19T15:08:23;22.60;99.90
47600;DHT22;33323;52.124;6.018;2022-08-19T15:10:56;22.70;99.90
47600;DHT22;33323;52.124;6.018;2022-08-19T15:13:24;22.50;99.90
47600;DHT22;33323;52.124;6.018;2022-08-19T15:15:53;22.50;99.90
47600;DHT22;33323;52.124;6.018;2022-08-19T15:18:21;22.30;99.90
47600;DHT22;33323;52.124;6.018;2022-08-19T15:20:49;22.20;99.90
47600;DHT22;33323;52.124;6.018;2022-08-19T15:23:18;22.30;99.90
47600;DHT22;33323;52.124;6.018;2022-08-19T15:25:45;22.30;99.90
47600;DHT22;33323;52.124;6.018;2022-08-19T15:28:12;22.00;99.90
47600;DHT22;33323;52.124;6.018;2022-08-19T15:30:43;21.90;99.90
47600;DHT22;33323;52.124;6.018;2022-08-19T15:33:10;21.80;99.90
47600;DHT22;33323;52.124;6.018;2022-08-19T15:35:42;22.00;99.90
47600;DHT22;33323;52.124;6.018;2022-08-19T15:38:10;22.20;99.90
47600;DHT22;33323;52.124;6.018;2022-08-19T15:40:41;22.20;99.90
47600;DHT22;33323;52.124;6.018;2022-08-19T15:43:08;22.20;99.90
47600;DHT22;33323;52.124;6.018;2022-08-19T15:45:35;22.30;99.90
47600;DHT22;33323;52.124;6.018;2022-08-19T15:48:03;22.30;99.90
47600;DHT22;33323;52.124;6.018;2022-08-19T15:50:30;22.20;99.90
47600;DHT22;33323;52.124;6.018;2022-08-19T15:53:00;22.30;99.90
47600;DHT22;33323;52.124;6.018;2022-08-19T15:55:31;22.40;99.90
47600;DHT22;33323;52.124;6.018;2022-08-19T15:58:07;22.30;99.90
47600;DHT22;33323;52.124;6.018;2022-08-19T16:01:11;22.40;99.90
47600;DHT22;33323;52.124;6.018;2022-08-19T16:04:15;22.40;99.90
47600;DHT22;33323;52.124;6.018;2022-08-19T16:07:17;22.50;99.90